sensor_id;sensor_type;location;lat;lon;timestamp;P1;durP1;ratioP1;P2;durP2;ratioP2
67696;SDS011;54486;51.442;6.778;2023-12-29T00:02:16;10.98;;;2.45;;
67696;SDS011;54486;51.442;6.778;2023-12-29T00:04:42;11.02;;;2.58;;
67696;SDS011;54486;51.442;6.778;2023-12-29T00:07:10;10.85;;;2.25;;
67696;SDS011;54486;51.442;6.778;2023-12-29T00:09:38;10.55;;;2.17;;
67696;SDS011;54486;51.442;6.778;2023-12-29T00:12:08;9.65;;;2.20;;
67696;SDS011;54486;51.442;6.778;2023-12-29T00:14:39;8.07;;;1.77;;
67696;SDS011;54486;51.442;6.778;2023-12-29T00:17:07;8.48;;;2.10;;
67696;SDS011;54486;51.442;6.778;2023-12-29T00:19:35;9.65;;;1.73;;
67696;SDS011;54486;51.442;6.778;2023-12-29T00:22:03;11.75;;;2.10;;
67696;SDS011;54486;51.442;6.778;2023-12-29T00:24:31;8.27;;;1.80;;
67696;SDS011;54486;51.442;6.778;2023-12-29T00:26:59;8.98;;;2.17;;
67696;SDS011;54486;51.442;6.778;2023-12-29T00:29:26;8.35;;;2.08;;
67696;SDS011;54486;51.442;6.778;2023-12-29T00:31:58;8.77;;;1.90;;
67696;SDS011;54486;51.442;6.778;2023-12-29T00:34:27;9.37;;;1.97;;
67696;SDS011;54486;51.442;6.778;2023-12-29T00:36:57;8.68;;;2.10;;
67696;SDS011;54486;51.442;6.778;2023-12-29T00:39:25;9.15;;;2.25;;
67696;SDS011;54486;51.442;6.778;2023-12-29T00:41:57;7.55;;;1.85;;
67696;SDS011;54486;51.442;6.778;2023-12-29T00:44:25;7.43;;;1.95;;
67696;SDS011;54486;51.442;6.778;2023-12-29T00:46:52;11.07;;;2.20;;
67696;SDS011;54486;51.442;6.778;2023-12-29T00:49:20;8.57;;;2.00;;
67696;SDS011;54486;51.442;6.778;2023-12-29T00:51:47;9.03;;;1.90;;
67696;SDS011;54486;51.442;6.778;2023-12-29T00:54:15;8.88;;;1.73;;
67696;SDS011;54486;51.442;6.778;2023-12-29T00:56:50;10.10;;;2.10;;
67696;SDS011;54486;51.442;6.778;2023-12-29T00:59:19;9.50;;;2.13;;
67696;SDS011;54486;51.442;6.778;2023-12-29T01:01:49;7.50;;;1.73;;
67696;SDS011;54486;51.442;6.778;2023-12-29T01:04:16;9.90;;;2.40;;
67696;SDS011;54486;51.442;6.778;2023-12-29T01:06:44;8.70;;;1.67;;
67696;SDS011;54486;51.442;6.778;2023-12-29T01:09:11;9.32;;;1.85;;
67696;SDS011;54486;51.442;6.778;2023-12-29T01:11:39;10.20;;;1.92;;
67696;SDS011;54486;51.442;6.778;2023-12-29T01:14:06;9.65;;;1.98;;
67696;SDS011;54486;51.442;6.778;2023-12-29T01:16:33;8.75;;;2.00;;
67696;SDS011;54486;51.442;6.778;2023-12-29T01:19:00;9.25;;;2.03;;
67696;SDS011;54486;51.442;6.778;2023-12-29T01:21:28;10.23;;;1.90;;
67696;SDS011;54486;51.442;6.778;2023-12-29T01:23:55;8.20;;;1.95;;
67696;SDS011;54486;51.442;6.778;2023-12-29T01:26:22;7.45;;;2.40;;
67696;SDS011;54486;51.442;6.778;2023-12-29T01:28:49;9.02;;;1.80;;
67696;SDS011;54486;51.442;6.778;2023-12-29T01:31:16;10.15;;;2.25;;
67696;SDS011;54486;51.442;6.778;2023-12-29T01:33:43;10.23;;;2.20;;
67696;SDS011;54486;51.442;6.778;2023-12-29T01:36:16;9.55;;;2.22;;
67696;SDS011;54486;51.442;6.778;2023-12-29T01:38:46;9.52;;;2.22;;
67696;SDS011;54486;51.442;6.778;2023-12-29T01:41:14;7.13;;;1.80;;
67696;SDS011;54486;51.442;6.778;2023-12-29T01:46:27;8.85;;;1.85;;
67696;SDS011;54486;51.442;6.778;2023-12-29T01:48:56;9.52;;;2.03;;
67696;SDS011;54486;51.442;6.778;2023-12-29T01:51:25;9.57;;;1.88;;
67696;SDS011;54486;51.442;6.778;2023-12-29T01:53:54;11.02;;;1.95;;
67696;SDS011;54486;51.442;6.778;2023-12-29T01:56:23;9.15;;;2.25;;
67696;SDS011;54486;51.442;6.778;2023-12-29T01:58:52;10.50;;;2.10;;
67696;SDS011;54486;51.442;6.778;2023-12-29T02:01:31;10.18;;;2.10;;
67696;SDS011;54486;51.442;6.778;2023-12-29T02:03:58;11.32;;;2.67;;
67696;SDS011;54486;51.442;6.778;2023-12-29T02:06:26;10.38;;;2.15;;
67696;SDS011;54486;51.442;6.778;2023-12-29T02:08:54;9.43;;;2.20;;
67696;SDS011;54486;51.442;6.778;2023-12-29T02:11:21;9.45;;;2.67;;
67696;SDS011;54486;51.442;6.778;2023-12-29T02:13:48;11.68;;;2.47;;
67696;SDS011;54486;51.442;6.778;2023-12-29T02:16:17;11.57;;;2.45;;
67696;SDS011;54486;51.442;6.778;2023-12-29T02:18:49;10.52;;;2.30;;
67696;SDS011;54486;51.442;6.778;2023-12-29T02:21:17;10.05;;;2.30;;
67696;SDS011;54486;51.442;6.778;2023-12-29T02:23:50;10.75;;;2.38;;
67696;SDS011;54486;51.442;6.778;2023-12-29T02:26:17;9.80;;;2.50;;
67696;SDS011;54486;51.442;6.778;2023-12-29T02:28:51;8.73;;;2.50;;
67696;SDS011;54486;51.442;6.778;2023-12-29T02:31:24;10.03;;;2.70;;
67696;SDS011;54486;51.442;6.778;2023-12-29T02:33:53;11.20;;;2.70;;
67696;SDS011;54486;51.442;6.778;2023-12-29T02:36:22;8.93;;;2.47;;
67696;SDS011;54486;51.442;6.778;2023-12-29T02:38:50;9.23;;;2.88;;
67696;SDS011;54486;51.442;6.778;2023-12-29T02:41:18;10.57;;;2.50;;
67696;SDS011;54486;51.442;6.778;2023-12-29T02:43:44;9.45;;;2.40;;
67696;SDS011;54486;51.442;6.778;2023-12-29T02:46:12;9.10;;;2.50;;
67696;SDS011;54486;51.442;6.778;2023-12-29T02:48:39;10.55;;;2.70;;
67696;SDS011;54486;51.442;6.778;2023-12-29T02:51:06;10.65;;;2.60;;
67696;SDS011;54486;51.442;6.778;2023-12-29T02:53:35;11.18;;;2.50;;
67696;SDS011;54486;51.442;6.778;2023-12-29T02:56:02;10.43;;;2.38;;
67696;SDS011;54486;51.442;6.778;2023-12-29T02:58:29;9.68;;;2.53;;
67696;SDS011;54486;51.442;6.778;2023-12-29T03:00:56;10.73;;;2.30;;
67696;SDS011;54486;51.442;6.778;2023-12-29T03:03:23;10.50;;;2.05;;
67696;SDS011;54486;51.442;6.778;2023-12-29T03:05:50;10.00;;;1.97;;
67696;SDS011;54486;51.442;6.778;2023-12-29T03:08:17;10.48;;;2.28;;
67696;SDS011;54486;51.442;6.778;2023-12-29T03:10:44;9.98;;;2.10;;
67696;SDS011;54486;51.442;6.778;2023-12-29T03:13:12;13.13;;;2.58;;
67696;SDS011;54486;51.442;6.778;2023-12-29T03:15:39;12.75;;;2.45;;
67696;SDS011;54486;51.442;6.778;2023-12-29T03:18:06;10.57;;;2.00;;
67696;SDS011;54486;51.442;6.778;2023-12-29T03:20:33;10.52;;;2.50;;
67696;SDS011;54486;51.442;6.778;2023-12-29T03:23:00;9.32;;;1.80;;
67696;SDS011;54486;51.442;6.778;2023-12-29T03:25:27;11.07;;;2.20;;
67696;SDS011;54486;51.442;6.778;2023-12-29T03:27:54;12.48;;;3.10;;
67696;SDS011;54486;51.442;6.778;2023-12-29T03:30:21;9.38;;;2.10;;
67696;SDS011;54486;51.442;6.778;2023-12-29T03:32:48;10.57;;;2.22;;
67696;SDS011;54486;51.442;6.778;2023-12-29T03:35:15;10.32;;;2.17;;
67696;SDS011;54486;51.442;6.778;2023-12-29T03:37:43;11.07;;;2.27;;
67696;SDS011;54486;51.442;6.778;2023-12-29T03:40:10;8.93;;;2.60;;
67696;SDS011;54486;51.442;6.778;2023-12-29T03:42:39;8.65;;;2.33;;
67696;SDS011;54486;51.442;6.778;2023-12-29T03:45:07;10.02;;;2.25;;
67696;SDS011;54486;51.442;6.778;2023-12-29T03:47:35;10.18;;;2.25;;
67696;SDS011;54486;51.442;6.778;2023-12-29T03:50:02;9.32;;;2.30;;
67696;SDS011;54486;51.442;6.778;2023-12-29T03:52:30;11.52;;;2.50;;
67696;SDS011;54486;51.442;6.778;2023-12-29T03:54:57;9.40;;;2.30;;
67696;SDS011;54486;51.442;6.778;2023-12-29T03:57:24;9.60;;;2.20;;
67696;SDS011;54486;51.442;6.778;2023-12-29T03:59:52;10.52;;;2.50;;
67696;SDS011;54486;51.442;6.778;2023-12-29T04:02:19;9.80;;;2.00;;
67696;SDS011;54486;51.442;6.778;2023-12-29T04:04:46;10.43;;;2.45;;
67696;SDS011;54486;51.442;6.778;2023-12-29T04:07:13;12.03;;;2.53;;
67696;SDS011;54486;51.442;6.778;2023-12-29T04:09:40;9.27;;;2.15;;
67696;SDS011;54486;51.442;6.778;2023-12-29T04:12:07;10.05;;;2.33;;
67696;SDS011;54486;51.442;6.778;2023-12-29T04:14:35;9.43;;;2.30;;
67696;SDS011;54486;51.442;6.778;2023-12-29T04:17:02;11.45;;;2.42;;
67696;SDS011;54486;51.442;6.778;2023-12-29T04:19:31;11.65;;;2.30;;
67696;SDS011;54486;51.442;6.778;2023-12-29T04:21:58;9.20;;;2.17;;
67696;SDS011;54486;51.442;6.778;2023-12-29T04:24:25;10.00;;;1.90;;
67696;SDS011;54486;51.442;6.778;2023-12-29T04:26:52;7.80;;;2.05;;
67696;SDS011;54486;51.442;6.778;2023-12-29T04:29:19;9.57;;;2.20;;
67696;SDS011;54486;51.442;6.778;2023-12-29T04:31:46;10.20;;;1.97;;
67696;SDS011;54486;51.442;6.778;2023-12-29T04:34:13;9.30;;;2.28;;
67696;SDS011;54486;51.442;6.778;2023-12-29T04:36:40;9.18;;;2.05;;
67696;SDS011;54486;51.442;6.778;2023-12-29T04:39:07;9.25;;;2.10;;
67696;SDS011;54486;51.442;6.778;2023-12-29T04:41:38;7.90;;;2.22;;
67696;SDS011;54486;51.442;6.778;2023-12-29T04:44:05;10.90;;;2.40;;
67696;SDS011;54486;51.442;6.778;2023-12-29T04:46:33;10.20;;;2.07;;
67696;SDS011;54486;51.442;6.778;2023-12-29T04:48:59;8.35;;;2.03;;
67696;SDS011;54486;51.442;6.778;2023-12-29T04:51:28;8.55;;;1.90;;
67696;SDS011;54486;51.442;6.778;2023-12-29T04:53:55;8.48;;;2.03;;
67696;SDS011;54486;51.442;6.778;2023-12-29T04:56:22;10.02;;;2.08;;
67696;SDS011;54486;51.442;6.778;2023-12-29T04:58:50;7.80;;;2.43;;
67696;SDS011;54486;51.442;6.778;2023-12-29T05:01:18;8.82;;;2.15;;
67696;SDS011;54486;51.442;6.778;2023-12-29T05:03:45;9.15;;;1.85;;
67696;SDS011;54486;51.442;6.778;2023-12-29T05:06:12;9.40;;;1.87;;
67696;SDS011;54486;51.442;6.778;2023-12-29T05:08:39;11.57;;;2.30;;
67696;SDS011;54486;51.442;6.778;2023-12-29T05:11:07;8.60;;;1.73;;
67696;SDS011;54486;51.442;6.778;2023-12-29T05:13:35;8.95;;;1.90;;
67696;SDS011;54486;51.442;6.778;2023-12-29T05:16:02;11.63;;;1.80;;
67696;SDS011;54486;51.442;6.778;2023-12-29T05:18:30;10.70;;;2.00;;
67696;SDS011;54486;51.442;6.778;2023-12-29T05:20:57;10.80;;;2.13;;
67696;SDS011;54486;51.442;6.778;2023-12-29T05:23:25;9.30;;;1.90;;
67696;SDS011;54486;51.442;6.778;2023-12-29T05:25:52;8.82;;;1.70;;
67696;SDS011;54486;51.442;6.778;2023-12-29T05:28:19;11.40;;;1.90;;
67696;SDS011;54486;51.442;6.778;2023-12-29T05:30:48;10.93;;;1.92;;
67696;SDS011;54486;51.442;6.778;2023-12-29T05:33:15;9.33;;;1.90;;
67696;SDS011;54486;51.442;6.778;2023-12-29T05:35:42;10.15;;;1.85;;
67696;SDS011;54486;51.442;6.778;2023-12-29T05:38:09;10.48;;;2.30;;
67696;SDS011;54486;51.442;6.778;2023-12-29T05:40:36;10.00;;;1.92;;
67696;SDS011;54486;51.442;6.778;2023-12-29T05:43:03;8.23;;;1.80;;
67696;SDS011;54486;51.442;6.778;2023-12-29T05:45:30;9.55;;;2.20;;
67696;SDS011;54486;51.442;6.778;2023-12-29T05:47:57;10.13;;;1.92;;
67696;SDS011;54486;51.442;6.778;2023-12-29T05:50:25;8.90;;;1.65;;
67696;SDS011;54486;51.442;6.778;2023-12-29T05:52:52;11.15;;;2.30;;
67696;SDS011;54486;51.442;6.778;2023-12-29T05:55:19;10.80;;;2.10;;
67696;SDS011;54486;51.442;6.778;2023-12-29T05:57:46;10.30;;;2.25;;
67696;SDS011;54486;51.442;6.778;2023-12-29T06:00:14;9.48;;;1.95;;
67696;SDS011;54486;51.442;6.778;2023-12-29T06:02:41;12.27;;;2.00;;
67696;SDS011;54486;51.442;6.778;2023-12-29T06:05:12;10.07;;;2.10;;
67696;SDS011;54486;51.442;6.778;2023-12-29T06:07:40;10.20;;;2.10;;
67696;SDS011;54486;51.442;6.778;2023-12-29T06:10:07;9.10;;;2.23;;
67696;SDS011;54486;51.442;6.778;2023-12-29T06:12:36;10.05;;;1.90;;
67696;SDS011;54486;51.442;6.778;2023-12-29T06:15:04;10.55;;;2.25;;
67696;SDS011;54486;51.442;6.778;2023-12-29T06:17:31;11.25;;;2.15;;
67696;SDS011;54486;51.442;6.778;2023-12-29T06:19:59;9.27;;;2.15;;
67696;SDS011;54486;51.442;6.778;2023-12-29T06:22:26;10.38;;;1.75;;
67696;SDS011;54486;51.442;6.778;2023-12-29T06:24:55;8.70;;;2.30;;
67696;SDS011;54486;51.442;6.778;2023-12-29T06:27:22;10.32;;;2.28;;
67696;SDS011;54486;51.442;6.778;2023-12-29T06:29:49;11.95;;;2.03;;
67696;SDS011;54486;51.442;6.778;2023-12-29T06:32:17;9.65;;;2.13;;
67696;SDS011;54486;51.442;6.778;2023-12-29T06:34:44;10.13;;;2.05;;
67696;SDS011;54486;51.442;6.778;2023-12-29T06:37:12;10.05;;;2.05;;
67696;SDS011;54486;51.442;6.778;2023-12-29T06:39:39;11.32;;;2.05;;
67696;SDS011;54486;51.442;6.778;2023-12-29T06:42:06;11.52;;;2.20;;
67696;SDS011;54486;51.442;6.778;2023-12-29T06:44:33;10.02;;;2.15;;
67696;SDS011;54486;51.442;6.778;2023-12-29T06:47:01;12.63;;;2.47;;
67696;SDS011;54486;51.442;6.778;2023-12-29T06:49:31;11.50;;;2.17;;
67696;SDS011;54486;51.442;6.778;2023-12-29T06:52:02;10.43;;;2.13;;
67696;SDS011;54486;51.442;6.778;2023-12-29T06:54:29;9.03;;;1.90;;
67696;SDS011;54486;51.442;6.778;2023-12-29T06:56:58;9.88;;;2.15;;
67696;SDS011;54486;51.442;6.778;2023-12-29T06:59:26;8.25;;;1.80;;
67696;SDS011;54486;51.442;6.778;2023-12-29T07:01:53;7.60;;;2.03;;
67696;SDS011;54486;51.442;6.778;2023-12-29T07:04:20;9.98;;;2.22;;
67696;SDS011;54486;51.442;6.778;2023-12-29T07:06:48;8.73;;;2.00;;
67696;SDS011;54486;51.442;6.778;2023-12-29T07:09:15;10.97;;;2.20;;
67696;SDS011;54486;51.442;6.778;2023-12-29T07:11:46;11.50;;;2.10;;
67696;SDS011;54486;51.442;6.778;2023-12-29T07:14:14;11.20;;;2.55;;
67696;SDS011;54486;51.442;6.778;2023-12-29T07:16:41;7.90;;;2.00;;
67696;SDS011;54486;51.442;6.778;2023-12-29T07:19:08;9.90;;;1.97;;
67696;SDS011;54486;51.442;6.778;2023-12-29T07:21:36;10.90;;;2.20;;
67696;SDS011;54486;51.442;6.778;2023-12-29T07:24:03;8.98;;;2.03;;
67696;SDS011;54486;51.442;6.778;2023-12-29T07:26:34;8.50;;;2.20;;
67696;SDS011;54486;51.442;6.778;2023-12-29T07:29:04;9.23;;;2.20;;
67696;SDS011;54486;51.442;6.778;2023-12-29T07:31:32;11.70;;;2.57;;
67696;SDS011;54486;51.442;6.778;2023-12-29T07:34:00;12.13;;;2.67;;
67696;SDS011;54486;51.442;6.778;2023-12-29T07:36:27;11.18;;;2.13;;
67696;SDS011;54486;51.442;6.778;2023-12-29T07:38:54;10.07;;;2.20;;
67696;SDS011;54486;51.442;6.778;2023-12-29T07:41:21;14.40;;;2.53;;
67696;SDS011;54486;51.442;6.778;2023-12-29T07:43:48;10.85;;;2.42;;
67696;SDS011;54486;51.442;6.778;2023-12-29T07:46:23;11.38;;;2.22;;
67696;SDS011;54486;51.442;6.778;2023-12-29T07:48:55;11.20;;;2.10;;
67696;SDS011;54486;51.442;6.778;2023-12-29T07:51:23;11.03;;;2.00;;
67696;SDS011;54486;51.442;6.778;2023-12-29T07:53:50;12.43;;;2.58;;
67696;SDS011;54486;51.442;6.778;2023-12-29T07:56:18;8.73;;;2.00;;
67696;SDS011;54486;51.442;6.778;2023-12-29T07:58:47;11.07;;;1.90;;
67696;SDS011;54486;51.442;6.778;2023-12-29T08:01:16;10.40;;;1.85;;
67696;SDS011;54486;51.442;6.778;2023-12-29T08:03:44;8.45;;;1.85;;
67696;SDS011;54486;51.442;6.778;2023-12-29T08:06:12;8.70;;;1.83;;
67696;SDS011;54486;51.442;6.778;2023-12-29T08:08:39;9.03;;;1.83;;
67696;SDS011;54486;51.442;6.778;2023-12-29T08:11:12;9.50;;;2.50;;
67696;SDS011;54486;51.442;6.778;2023-12-29T08:13:43;10.68;;;2.15;;
67696;SDS011;54486;51.442;6.778;2023-12-29T08:16:10;8.53;;;2.00;;
67696;SDS011;54486;51.442;6.778;2023-12-29T08:18:37;8.10;;;2.03;;
67696;SDS011;54486;51.442;6.778;2023-12-29T08:21:06;9.10;;;1.98;;
67696;SDS011;54486;51.442;6.778;2023-12-29T08:23:33;10.30;;;2.17;;
67696;SDS011;54486;51.442;6.778;2023-12-29T08:26:02;8.73;;;1.67;;
67696;SDS011;54486;51.442;6.778;2023-12-29T08:28:29;9.75;;;1.85;;
67696;SDS011;54486;51.442;6.778;2023-12-29T08:30:56;9.80;;;1.92;;
67696;SDS011;54486;51.442;6.778;2023-12-29T08:33:24;7.15;;;2.00;;
67696;SDS011;54486;51.442;6.778;2023-12-29T08:35:52;9.13;;;1.92;;
67696;SDS011;54486;51.442;6.778;2023-12-29T08:38:20;8.35;;;1.88;;
67696;SDS011;54486;51.442;6.778;2023-12-29T08:40:47;8.98;;;2.05;;
67696;SDS011;54486;51.442;6.778;2023-12-29T08:43:14;7.97;;;1.70;;
67696;SDS011;54486;51.442;6.778;2023-12-29T08:45:44;8.93;;;2.05;;
67696;SDS011;54486;51.442;6.778;2023-12-29T08:48:11;6.87;;;1.80;;
67696;SDS011;54486;51.442;6.778;2023-12-29T08:50:38;7.25;;;1.70;;
67696;SDS011;54486;51.442;6.778;2023-12-29T08:53:06;10.30;;;1.88;;
67696;SDS011;54486;51.442;6.778;2023-12-29T08:55:33;9.25;;;1.88;;
67696;SDS011;54486;51.442;6.778;2023-12-29T08:58:00;7.20;;;1.70;;
67696;SDS011;54486;51.442;6.778;2023-12-29T09:00:28;7.57;;;1.55;;
67696;SDS011;54486;51.442;6.778;2023-12-29T09:02:57;8.00;;;1.70;;
67696;SDS011;54486;51.442;6.778;2023-12-29T09:05:24;8.30;;;1.75;;
67696;SDS011;54486;51.442;6.778;2023-12-29T09:07:51;6.55;;;1.77;;
67696;SDS011;54486;51.442;6.778;2023-12-29T09:10:18;7.38;;;1.90;;
67696;SDS011;54486;51.442;6.778;2023-12-29T09:12:45;6.25;;;1.33;;
67696;SDS011;54486;51.442;6.778;2023-12-29T09:15:13;7.28;;;1.50;;
67696;SDS011;54486;51.442;6.778;2023-12-29T09:17:40;5.68;;;1.40;;
67696;SDS011;54486;51.442;6.778;2023-12-29T09:20:08;6.80;;;1.67;;
67696;SDS011;54486;51.442;6.778;2023-12-29T09:22:37;5.45;;;1.45;;
67696;SDS011;54486;51.442;6.778;2023-12-29T09:25:05;5.72;;;1.65;;
67696;SDS011;54486;51.442;6.778;2023-12-29T09:27:33;6.73;;;1.10;;
67696;SDS011;54486;51.442;6.778;2023-12-29T09:30:00;5.78;;;1.50;;
67696;SDS011;54486;51.442;6.778;2023-12-29T09:32:28;5.57;;;1.27;;
67696;SDS011;54486;51.442;6.778;2023-12-29T09:34:55;5.03;;;1.25;;
67696;SDS011;54486;51.442;6.778;2023-12-29T09:37:22;4.78;;;1.30;;
67696;SDS011;54486;51.442;6.778;2023-12-29T09:39:51;5.43;;;1.15;;
67696;SDS011;54486;51.442;6.778;2023-12-29T09:42:21;4.28;;;1.27;;
67696;SDS011;54486;51.442;6.778;2023-12-29T09:44:52;5.65;;;1.35;;
67696;SDS011;54486;51.442;6.778;2023-12-29T09:47:23;4.90;;;1.20;;
67696;SDS011;54486;51.442;6.778;2023-12-29T09:49:51;4.30;;;1.23;;
67696;SDS011;54486;51.442;6.778;2023-12-29T09:52:21;3.77;;;0.90;;
67696;SDS011;54486;51.442;6.778;2023-12-29T09:54:52;5.63;;;1.67;;
67696;SDS011;54486;51.442;6.778;2023-12-29T09:57:20;5.30;;;1.38;;
67696;SDS011;54486;51.442;6.778;2023-12-29T09:59:48;5.38;;;1.15;;
67696;SDS011;54486;51.442;6.778;2023-12-29T10:02:18;4.75;;;1.38;;
67696;SDS011;54486;51.442;6.778;2023-12-29T10:04:48;5.20;;;1.30;;
67696;SDS011;54486;51.442;6.778;2023-12-29T10:07:25;5.57;;;1.58;;
67696;SDS011;54486;51.442;6.778;2023-12-29T10:09:57;5.00;;;1.50;;
67696;SDS011;54486;51.442;6.778;2023-12-29T10:12:25;4.82;;;1.38;;
67696;SDS011;54486;51.442;6.778;2023-12-29T10:15:17;4.88;;;1.33;;
67696;SDS011;54486;51.442;6.778;2023-12-29T10:18:06;5.57;;;1.50;;
67696;SDS011;54486;51.442;6.778;2023-12-29T10:20:50;5.93;;;1.50;;
67696;SDS011;54486;51.442;6.778;2023-12-29T10:23:36;6.23;;;1.50;;
67696;SDS011;54486;51.442;6.778;2023-12-29T10:26:07;5.37;;;1.43;;
67696;SDS011;54486;51.442;6.778;2023-12-29T10:28:37;5.68;;;1.50;;
67696;SDS011;54486;51.442;6.778;2023-12-29T10:31:04;6.25;;;1.50;;
67696;SDS011;54486;51.442;6.778;2023-12-29T10:33:32;6.93;;;1.50;;
67696;SDS011;54486;51.442;6.778;2023-12-29T10:36:01;7.03;;;1.63;;
67696;SDS011;54486;51.442;6.778;2023-12-29T10:38:30;6.30;;;1.77;;
67696;SDS011;54486;51.442;6.778;2023-12-29T10:41:10;5.73;;;1.63;;
67696;SDS011;54486;51.442;6.778;2023-12-29T10:43:41;6.78;;;1.92;;
67696;SDS011;54486;51.442;6.778;2023-12-29T10:46:10;6.07;;;1.75;;
67696;SDS011;54486;51.442;6.778;2023-12-29T10:48:38;6.50;;;1.60;;
67696;SDS011;54486;51.442;6.778;2023-12-29T10:51:06;8.30;;;2.20;;
67696;SDS011;54486;51.442;6.778;2023-12-29T10:53:34;7.65;;;1.63;;
67696;SDS011;54486;51.442;6.778;2023-12-29T10:56:10;6.97;;;1.70;;
67696;SDS011;54486;51.442;6.778;2023-12-29T10:58:47;6.43;;;1.98;;
67696;SDS011;54486;51.442;6.778;2023-12-29T11:01:23;6.72;;;1.58;;
67696;SDS011;54486;51.442;6.778;2023-12-29T11:04:03;5.20;;;1.50;;
67696;SDS011;54486;51.442;6.778;2023-12-29T11:06:44;5.40;;;1.33;;
67696;SDS011;54486;51.442;6.778;2023-12-29T11:09:15;5.80;;;1.60;;
67696;SDS011;54486;51.442;6.778;2023-12-29T11:11:55;7.00;;;1.70;;
67696;SDS011;54486;51.442;6.778;2023-12-29T11:14:25;7.60;;;1.80;;
67696;SDS011;54486;51.442;6.778;2023-12-29T11:16:54;7.53;;;2.10;;
67696;SDS011;54486;51.442;6.778;2023-12-29T11:19:21;6.72;;;2.00;;
67696;SDS011;54486;51.442;6.778;2023-12-29T11:21:51;6.38;;;1.65;;
67696;SDS011;54486;51.442;6.778;2023-12-29T11:24:23;7.65;;;1.77;;
67696;SDS011;54486;51.442;6.778;2023-12-29T11:27:04;6.90;;;1.70;;
67696;SDS011;54486;51.442;6.778;2023-12-29T11:29:34;8.40;;;2.08;;
67696;SDS011;54486;51.442;6.778;2023-12-29T11:32:02;7.03;;;1.55;;
67696;SDS011;54486;51.442;6.778;2023-12-29T11:34:38;7.30;;;2.08;;
67696;SDS011;54486;51.442;6.778;2023-12-29T11:37:15;7.40;;;1.93;;
67696;SDS011;54486;51.442;6.778;2023-12-29T11:39:54;8.10;;;1.70;;
67696;SDS011;54486;51.442;6.778;2023-12-29T11:42:46;6.30;;;1.40;;
67696;SDS011;54486;51.442;6.778;2023-12-29T11:47:53;6.13;;;1.50;;
67696;SDS011;54486;51.442;6.778;2023-12-29T11:50:30;6.72;;;1.42;;
67696;SDS011;54486;51.442;6.778;2023-12-29T11:53:01;5.82;;;1.52;;
67696;SDS011;54486;51.442;6.778;2023-12-29T11:55:31;7.60;;;1.63;;
67696;SDS011;54486;51.442;6.778;2023-12-29T11:58:02;5.90;;;1.52;;
67696;SDS011;54486;51.442;6.778;2023-12-29T12:00:44;6.95;;;1.73;;
67696;SDS011;54486;51.442;6.778;2023-12-29T12:03:18;7.07;;;1.77;;
67696;SDS011;54486;51.442;6.778;2023-12-29T12:05:52;6.32;;;1.90;;
67696;SDS011;54486;51.442;6.778;2023-12-29T12:10:55;7.30;;;1.90;;
67696;SDS011;54486;51.442;6.778;2023-12-29T12:13:42;7.85;;;2.08;;
67696;SDS011;54486;51.442;6.778;2023-12-29T12:16:11;10.55;;;2.58;;
67696;SDS011;54486;51.442;6.778;2023-12-29T12:19:09;6.97;;;2.10;;
67696;SDS011;54486;51.442;6.778;2023-12-29T12:21:36;7.72;;;2.10;;
67696;SDS011;54486;51.442;6.778;2023-12-29T12:24:08;6.70;;;2.08;;
67696;SDS011;54486;51.442;6.778;2023-12-29T12:26:36;7.53;;;2.10;;
67696;SDS011;54486;51.442;6.778;2023-12-29T12:29:03;6.33;;;1.70;;
67696;SDS011;54486;51.442;6.778;2023-12-29T12:31:31;7.07;;;1.90;;
67696;SDS011;54486;51.442;6.778;2023-12-29T12:33:59;8.45;;;2.05;;
67696;SDS011;54486;51.442;6.778;2023-12-29T12:36:29;7.35;;;2.45;;
67696;SDS011;54486;51.442;6.778;2023-12-29T12:38:56;7.50;;;1.70;;
67696;SDS011;54486;51.442;6.778;2023-12-29T12:41:24;7.03;;;1.90;;
67696;SDS011;54486;51.442;6.778;2023-12-29T12:46:44;6.75;;;1.77;;
67696;SDS011;54486;51.442;6.778;2023-12-29T12:49:24;7.33;;;2.00;;
67696;SDS011;54486;51.442;6.778;2023-12-29T12:51:52;5.85;;;1.60;;
67696;SDS011;54486;51.442;6.778;2023-12-29T12:54:20;7.27;;;1.60;;
67696;SDS011;54486;51.442;6.778;2023-12-29T12:56:47;7.65;;;1.90;;
67696;SDS011;54486;51.442;6.778;2023-12-29T12:59:16;6.53;;;2.13;;
67696;SDS011;54486;51.442;6.778;2023-12-29T13:01:44;6.93;;;1.80;;
67696;SDS011;54486;51.442;6.778;2023-12-29T13:04:12;7.40;;;2.17;;
67696;SDS011;54486;51.442;6.778;2023-12-29T13:06:41;8.15;;;2.40;;
67696;SDS011;54486;51.442;6.778;2023-12-29T13:09:12;8.23;;;2.75;;
67696;SDS011;54486;51.442;6.778;2023-12-29T13:11:40;9.57;;;2.90;;
67696;SDS011;54486;51.442;6.778;2023-12-29T13:14:07;9.63;;;2.55;;
67696;SDS011;54486;51.442;6.778;2023-12-29T13:16:35;8.13;;;2.20;;
67696;SDS011;54486;51.442;6.778;2023-12-29T13:19:15;9.20;;;2.60;;
67696;SDS011;54486;51.442;6.778;2023-12-29T13:21:45;7.55;;;2.47;;
67696;SDS011;54486;51.442;6.778;2023-12-29T13:24:17;7.68;;;2.03;;
67696;SDS011;54486;51.442;6.778;2023-12-29T13:26:44;8.00;;;2.47;;
67696;SDS011;54486;51.442;6.778;2023-12-29T13:29:14;7.45;;;2.40;;
67696;SDS011;54486;51.442;6.778;2023-12-29T13:31:42;8.60;;;2.57;;
67696;SDS011;54486;51.442;6.778;2023-12-29T13:34:14;8.75;;;2.50;;
67696;SDS011;54486;51.442;6.778;2023-12-29T13:36:51;8.70;;;2.45;;
67696;SDS011;54486;51.442;6.778;2023-12-29T13:39:28;8.55;;;2.47;;
67696;SDS011;54486;51.442;6.778;2023-12-29T13:42:09;8.90;;;2.65;;
67696;SDS011;54486;51.442;6.778;2023-12-29T13:44:41;9.10;;;2.50;;
67696;SDS011;54486;51.442;6.778;2023-12-29T13:47:09;7.65;;;2.58;;
67696;SDS011;54486;51.442;6.778;2023-12-29T13:49:38;8.02;;;2.72;;
67696;SDS011;54486;51.442;6.778;2023-12-29T13:52:06;7.90;;;2.25;;
67696;SDS011;54486;51.442;6.778;2023-12-29T13:54:42;8.38;;;2.50;;
67696;SDS011;54486;51.442;6.778;2023-12-29T13:57:10;8.68;;;2.58;;
67696;SDS011;54486;51.442;6.778;2023-12-29T13:59:38;9.63;;;2.53;;
67696;SDS011;54486;51.442;6.778;2023-12-29T14:02:19;6.78;;;2.00;;
67696;SDS011;54486;51.442;6.778;2023-12-29T14:04:50;8.90;;;2.08;;
67696;SDS011;54486;51.442;6.778;2023-12-29T14:07:19;8.02;;;2.30;;
67696;SDS011;54486;51.442;6.778;2023-12-29T14:09:53;8.38;;;2.17;;
67696;SDS011;54486;51.442;6.778;2023-12-29T14:12:25;8.53;;;2.40;;
67696;SDS011;54486;51.442;6.778;2023-12-29T14:14:53;7.53;;;2.55;;
67696;SDS011;54486;51.442;6.778;2023-12-29T14:17:21;7.50;;;1.97;;
67696;SDS011;54486;51.442;6.778;2023-12-29T14:19:48;8.07;;;2.28;;
67696;SDS011;54486;51.442;6.778;2023-12-29T14:22:22;7.65;;;2.15;;
67696;SDS011;54486;51.442;6.778;2023-12-29T14:25:00;8.90;;;2.30;;
67696;SDS011;54486;51.442;6.778;2023-12-29T14:27:32;7.00;;;2.00;;
67696;SDS011;54486;51.442;6.778;2023-12-29T14:29:59;7.35;;;1.77;;
67696;SDS011;54486;51.442;6.778;2023-12-29T14:32:28;6.78;;;1.77;;
67696;SDS011;54486;51.442;6.778;2023-12-29T14:34:56;6.78;;;1.92;;
67696;SDS011;54486;51.442;6.778;2023-12-29T14:37:24;6.67;;;1.60;;
67696;SDS011;54486;51.442;6.778;2023-12-29T14:39:52;5.55;;;1.67;;
67696;SDS011;54486;51.442;6.778;2023-12-29T14:42:19;7.38;;;1.67;;
67696;SDS011;54486;51.442;6.778;2023-12-29T14:44:46;5.00;;;1.42;;
67696;SDS011;54486;51.442;6.778;2023-12-29T14:47:14;6.22;;;1.60;;
67696;SDS011;54486;51.442;6.778;2023-12-29T14:49:43;7.22;;;2.03;;
67696;SDS011;54486;51.442;6.778;2023-12-29T14:52:10;6.97;;;1.80;;
67696;SDS011;54486;51.442;6.778;2023-12-29T14:54:38;5.45;;;1.63;;
67696;SDS011;54486;51.442;6.778;2023-12-29T14:57:07;5.15;;;1.52;;
67696;SDS011;54486;51.442;6.778;2023-12-29T14:59:42;5.45;;;1.77;;
67696;SDS011;54486;51.442;6.778;2023-12-29T15:02:09;6.18;;;2.10;;
67696;SDS011;54486;51.442;6.778;2023-12-29T15:04:36;6.57;;;1.48;;
67696;SDS011;54486;51.442;6.778;2023-12-29T15:07:03;5.70;;;1.80;;